createdAt,value
2023-01-27T00:01:19.070Z,7.39
2023-01-27T00:03:47.599Z,7.37
2023-01-27T00:06:16.036Z,7.34
2023-01-27T00:08:44.552Z,7.33
2023-01-27T00:11:30.157Z,7.32
2023-01-27T00:13:58.580Z,7.31
2023-01-27T00:16:28.349Z,7.29
2023-01-27T00:18:56.751Z,7.28
2023-01-27T00:21:42.326Z,7.27
2023-01-27T00:24:30.988Z,7.25
2023-01-27T00:26:59.805Z,7.23
2023-01-27T00:29:28.285Z,7.24
2023-01-27T00:32:15.596Z,7.24
2023-01-27T00:34:44.013Z,7.22
2023-01-27T00:37:12.420Z,7.23
2023-01-27T00:39:40.882Z,7.22
2023-01-27T00:42:09.341Z,7.22
2023-01-27T00:44:37.821Z,7.20
2023-01-27T00:47:08.018Z,7.20
2023-01-27T00:49:36.408Z,7.17
2023-01-27T00:52:05.095Z,7.16
2023-01-27T00:54:33.464Z,7.13
2023-01-27T00:57:01.804Z,7.11
2023-01-27T00:59:30.228Z,7.11
2023-01-27T01:01:58.701Z,7.14
2023-01-27T01:04:28.471Z,7.14
2023-01-27T01:06:56.835Z,7.17
2023-01-27T01:09:25.571Z,7.18
2023-01-27T01:11:53.946Z,7.16
2023-01-27T01:14:22.376Z,7.15
2023-01-27T01:16:50.735Z,7.15
2023-01-27T01:19:19.138Z,7.16
2023-01-27T01:21:48.867Z,7.19
2023-01-27T01:24:17.482Z,7.20
2023-01-27T01:26:45.849Z,7.24
2023-01-27T01:29:14.250Z,7.26
2023-01-27T01:31:42.685Z,7.28
2023-01-27T01:34:11.251Z,7.29
2023-01-27T01:36:39.601Z,7.28
2023-01-27T01:39:09.355Z,7.28
2023-01-27T01:41:37.745Z,7.27
2023-01-27T01:44:24.279Z,7.25
2023-01-27T01:46:52.721Z,7.24
2023-01-27T01:49:28.291Z,7.22
2023-01-27T01:52:01.280Z,7.23
2023-01-27T01:54:36.823Z,7.24
2023-01-27T01:57:09.619Z,7.26
2023-01-27T01:59:42.205Z,7.26
2023-01-27T02:02:15.744Z,7.27
2023-01-27T02:04:49.988Z,7.30
2023-01-27T02:07:27.482Z,7.32
2023-01-27T02:09:58.823Z,7.34
2023-01-27T02:12:27.236Z,7.37
2023-01-27T02:14:55.858Z,7.40
2023-01-27T02:17:24.546Z,7.42
2023-01-27T02:20:03.807Z,7.42
2023-01-27T02:22:41.173Z,7.39
2023-01-27T02:25:19.019Z,7.38
2023-01-27T02:27:48.757Z,7.38
2023-01-27T02:30:18.043Z,7.36
2023-01-27T02:32:46.446Z,7.36
2023-01-27T02:35:27.607Z,7.36
2023-01-27T02:37:57.227Z,7.39
2023-01-27T02:40:27.352Z,7.40
2023-01-27T02:42:58.526Z,7.43
2023-01-27T02:45:29.174Z,7.44
2023-01-27T02:47:57.570Z,7.44
2023-01-27T02:50:26.233Z,7.40
2023-01-27T02:52:54.656Z,7.38
2023-01-27T02:55:23.315Z,7.34
2023-01-27T02:57:51.689Z,7.29
2023-01-27T03:00:22.061Z,7.25
2023-01-27T03:02:50.431Z,7.22
2023-01-27T03:05:19.335Z,7.18
2023-01-27T03:07:47.728Z,7.15
2023-01-27T03:10:16.283Z,7.12
2023-01-27T03:12:46.242Z,7.11
2023-01-27T03:15:31.972Z,7.09
2023-01-27T03:18:16.197Z,7.05
2023-01-27T03:20:48.163Z,7.03
2023-01-27T03:23:18.696Z,7.00
2023-01-27T03:25:49.381Z,6.97
2023-01-27T03:28:17.965Z,6.99
2023-01-27T03:30:46.401Z,6.98
2023-01-27T03:33:16.251Z,7.00
2023-01-27T03:35:49.185Z,6.99
2023-01-27T03:38:35.772Z,6.99
2023-01-27T03:41:22.736Z,6.95
2023-01-27T03:44:08.714Z,6.92
2023-01-27T03:46:37.104Z,6.88
2023-01-27T03:49:06.856Z,6.87
2023-01-27T03:51:35.207Z,6.87
2023-01-27T03:54:03.624Z,6.87
2023-01-27T03:56:31.981Z,6.84
2023-01-27T03:59:00.363Z,6.85
2023-01-27T04:01:28.749Z,6.86
2023-01-27T04:04:14.604Z,6.89
2023-01-27T04:06:54.508Z,6.89
2023-01-27T04:09:26.041Z,6.89
2023-01-27T04:11:58.995Z,6.91
2023-01-27T04:14:30.619Z,6.91
2023-01-27T04:17:01.892Z,6.90
2023-01-27T04:19:31.074Z,6.91
2023-01-27T04:22:02.141Z,6.91
2023-01-27T04:24:30.928Z,6.92
2023-01-27T04:27:02.045Z,6.91
2023-01-27T04:29:33.417Z,6.89
2023-01-27T04:32:01.905Z,6.87
2023-01-27T04:34:30.657Z,6.88
2023-01-27T04:37:01.135Z,6.87
2023-01-27T04:39:29.488Z,6.87
2023-01-27T04:41:58.181Z,6.84
2023-01-27T04:44:27.106Z,6.84
2023-01-27T04:46:55.828Z,6.84
2023-01-27T04:49:26.727Z,6.81
2023-01-27T04:51:55.384Z,6.79
2023-01-27T04:54:25.158Z,6.78
2023-01-27T04:57:00.743Z,6.76
2023-01-27T04:59:29.560Z,6.75
2023-01-27T05:01:58.061Z,6.75
2023-01-27T05:04:27.433Z,6.75
2023-01-27T05:06:56.097Z,6.78
2023-01-27T05:09:26.255Z,6.76
2023-01-27T05:11:54.650Z,6.78
2023-01-27T05:14:23.691Z,6.76
2023-01-27T05:16:52.348Z,6.77
2023-01-27T05:19:20.822Z,6.79
2023-01-27T05:21:49.192Z,6.82
2023-01-27T05:24:17.623Z,6.83
2023-01-27T05:26:47.413Z,6.83
2023-01-27T05:29:15.845Z,6.84
2023-01-27T05:31:44.279Z,6.83
2023-01-27T05:34:12.740Z,6.83
2023-01-27T05:36:41.138Z,6.85
2023-01-27T05:39:12.446Z,6.84
2023-01-27T05:41:40.991Z,6.83
2023-01-27T05:44:12.940Z,6.83
2023-01-27T05:46:42.699Z,6.83
2023-01-27T05:49:11.124Z,6.81
2023-01-27T05:51:40.793Z,6.80
2023-01-27T05:54:09.978Z,6.78
2023-01-27T05:56:39.256Z,6.75
2023-01-27T05:59:08.590Z,6.73
2023-01-27T06:01:38.854Z,6.73
2023-01-27T06:04:07.832Z,6.72
2023-01-27T06:06:36.524Z,6.74
2023-01-27T06:09:05.269Z,6.72
2023-01-27T06:11:33.672Z,6.74
2023-01-27T06:14:02.092Z,6.72
2023-01-27T06:16:30.539Z,6.73
2023-01-27T06:19:00.554Z,6.73
2023-01-27T06:21:29.053Z,6.74
2023-01-27T06:23:58.287Z,6.75
2023-01-27T06:26:26.912Z,6.77
2023-01-27T06:28:57.255Z,6.76
2023-01-27T06:31:26.040Z,6.75
2023-01-27T06:33:54.976Z,6.72
2023-01-27T06:36:24.950Z,6.70
2023-01-27T06:38:53.480Z,6.67
2023-01-27T06:41:22.014Z,6.66
2023-01-27T06:43:50.452Z,6.64
2023-01-27T06:46:18.927Z,6.66
2023-01-27T06:48:47.391Z,6.67
2023-01-27T06:51:15.986Z,6.71
2023-01-27T06:53:45.753Z,6.72
2023-01-27T06:56:16.367Z,6.72
2023-01-27T06:58:45.612Z,6.74
2023-01-27T07:01:14.144Z,6.74
2023-01-27T07:03:44.710Z,6.76
2023-01-27T07:06:15.143Z,6.75
2023-01-27T07:08:47.056Z,6.76
2023-01-27T07:11:15.817Z,6.77
2023-01-27T07:13:44.383Z,6.80
2023-01-27T07:16:12.858Z,6.83
2023-01-27T07:18:41.284Z,6.85
2023-01-27T07:21:09.707Z,6.84
2023-01-27T07:23:38.058Z,6.85
2023-01-27T07:26:23.202Z,6.85
2023-01-27T07:28:53.034Z,6.86
2023-01-27T07:31:21.538Z,6.86
2023-01-27T07:33:50.328Z,6.88
2023-01-27T07:36:18.751Z,6.90
2023-01-27T07:38:50.641Z,6.89
2023-01-27T07:41:20.612Z,6.88
2023-01-27T07:43:51.434Z,6.88
2023-01-27T07:46:20.766Z,6.88
2023-01-27T07:48:49.122Z,6.87
2023-01-27T07:51:17.628Z,6.86
2023-01-27T07:53:46.153Z,6.85
2023-01-27T07:56:14.644Z,6.85
2023-01-27T07:58:44.677Z,6.87
2023-01-27T08:01:14.731Z,6.88
2023-01-27T08:03:43.219Z,6.90
2023-01-27T08:06:13.608Z,6.90
2023-01-27T08:08:42.041Z,6.91
2023-01-27T08:11:13.482Z,6.91
2023-01-27T08:13:43.680Z,6.94
2023-01-27T08:16:16.542Z,6.97
2023-01-27T08:18:44.950Z,6.98
2023-01-27T08:21:14.695Z,7.00
2023-01-27T08:23:43.192Z,7.02
2023-01-27T08:26:11.598Z,7.05
2023-01-27T08:28:41.504Z,7.05
2023-01-27T08:31:14.397Z,7.05
2023-01-27T08:33:44.066Z,7.06
2023-01-27T08:36:15.327Z,7.06
2023-01-27T08:38:45.521Z,7.07
2023-01-27T08:41:17.631Z,7.11
2023-01-27T08:43:46.523Z,7.13
2023-01-27T08:46:17.053Z,7.14
2023-01-27T08:48:46.437Z,7.16
2023-01-27T08:51:15.734Z,7.21
2023-01-27T08:53:44.217Z,7.23
2023-01-27T08:56:15.034Z,7.26
2023-01-27T08:58:45.821Z,7.27
2023-01-27T09:01:16.940Z,7.28
2023-01-27T09:03:45.785Z,7.27
2023-01-27T09:06:15.793Z,7.26
2023-01-27T09:08:45.347Z,7.23
2023-01-27T09:11:17.205Z,7.23
2023-01-27T09:13:45.903Z,7.22
2023-01-27T09:16:15.904Z,7.22
2023-01-27T09:18:44.432Z,7.22
2023-01-27T09:21:12.944Z,7.26
2023-01-27T09:23:41.425Z,7.27
2023-01-27T09:26:09.941Z,7.28
2023-01-27T09:28:38.384Z,7.28
2023-01-27T09:31:09.685Z,7.27
2023-01-27T09:33:40.074Z,7.29
2023-01-27T09:36:14.794Z,7.29
2023-01-27T09:38:48.801Z,7.30
2023-01-27T09:41:44.207Z,7.28
2023-01-27T09:44:48.549Z,7.26
2023-01-27T09:47:48.519Z,7.23
2023-01-27T09:50:43.444Z,7.23
2023-01-27T09:54:07.574Z,7.26
2023-01-27T09:56:54.750Z,7.29
2023-01-27T09:59:41.039Z,7.35
2023-01-27T10:02:26.488Z,7.39
2023-01-27T10:05:10.846Z,7.39
2023-01-27T10:08:00.435Z,7.40
2023-01-27T10:10:47.180Z,7.40
2023-01-27T10:13:33.422Z,7.38
2023-01-27T10:16:28.033Z,7.38
2023-01-27T10:19:25.316Z,7.38
2023-01-27T10:22:03.854Z,7.36
2023-01-27T10:24:56.917Z,7.35
2023-01-27T10:27:28.243Z,7.37
2023-01-27T10:30:04.615Z,7.36
2023-01-27T10:32:44.803Z,7.39
2023-01-27T10:35:21.028Z,7.41
2023-01-27T10:38:03.542Z,7.40
2023-01-27T10:40:43.617Z,7.37
2023-01-27T10:43:20.733Z,7.37
2023-01-27T10:45:57.202Z,7.35
2023-01-27T10:48:38.036Z,7.35
2023-01-27T10:51:12.867Z,7.39
2023-01-27T10:53:53.307Z,7.42
2023-01-27T10:56:34.162Z,7.44
2023-01-27T10:59:09.816Z,7.45
2023-01-27T11:01:45.575Z,7.46
2023-01-27T11:04:19.172Z,7.47
2023-01-27T11:06:49.855Z,7.50
2023-01-27T11:09:29.786Z,7.52
2023-01-27T11:12:05.750Z,7.53
2023-01-27T11:14:42.791Z,7.55
2023-01-27T11:17:18.833Z,7.58
2023-01-27T11:19:56.900Z,7.61
2023-01-27T11:22:35.772Z,7.65
2023-01-27T11:25:18.377Z,7.63
2023-01-27T11:28:21.415Z,7.61
2023-01-27T11:30:57.328Z,7.59
2023-01-27T11:33:32.756Z,7.56
2023-01-27T11:36:01.434Z,7.54
2023-01-27T11:38:29.955Z,7.48
2023-01-27T11:40:58.411Z,7.46
2023-01-27T11:43:29.432Z,7.46
2023-01-27T11:46:05.318Z,7.50
2023-01-27T11:48:41.324Z,7.50
2023-01-27T11:51:21.920Z,7.50
2023-01-27T11:53:58.280Z,7.48
2023-01-27T11:56:27.290Z,7.42
2023-01-27T11:59:04.587Z,7.35
2023-01-27T12:01:47.249Z,7.27
2023-01-27T12:04:25.182Z,7.22
2023-01-27T12:06:58.142Z,7.20
2023-01-27T12:09:35.886Z,7.14
2023-01-27T12:12:24.572Z,7.07
2023-01-27T12:14:56.184Z,7.08
2023-01-27T12:17:32.502Z,7.11
2023-01-27T12:20:07.053Z,7.12
2023-01-27T12:22:40.235Z,7.13
2023-01-27T12:25:19.432Z,7.20
2023-01-27T12:27:53.936Z,7.26
2023-01-27T12:30:27.412Z,7.35
2023-01-27T12:32:56.861Z,7.41
2023-01-27T12:35:29.872Z,7.47
2023-01-27T12:38:03.315Z,7.55
2023-01-27T12:40:33.150Z,7.63
2023-01-27T12:43:14.587Z,7.67
2023-01-27T12:45:45.197Z,7.69
2023-01-27T12:48:21.131Z,7.73
2023-01-27T12:51:05.795Z,7.74
2023-01-27T12:53:34.733Z,7.72
2023-01-27T12:56:12.271Z,7.69
2023-01-27T12:58:42.996Z,7.65
2023-01-27T13:01:27.428Z,7.64
2023-01-27T13:04:00.384Z,7.62
2023-01-27T13:06:42.372Z,7.57
2023-01-27T13:09:28.427Z,7.52
2023-01-27T13:12:00.116Z,7.54
2023-01-27T13:14:31.611Z,7.53
2023-01-27T13:17:02.696Z,7.52
2023-01-27T13:19:44.091Z,7.51
2023-01-27T13:22:21.706Z,7.48
2023-01-27T13:24:56.605Z,7.51
2023-01-27T13:27:26.643Z,7.52
2023-01-27T13:30:02.190Z,7.50
2023-01-27T13:32:38.026Z,7.56
2023-01-27T13:35:20.135Z,7.57
2023-01-27T13:37:59.639Z,7.55
2023-01-27T13:40:33.176Z,7.53
2023-01-27T13:43:10.925Z,7.51
2023-01-27T13:45:43.977Z,7.47
2023-01-27T13:48:22.469Z,7.44
2023-01-27T13:50:58.091Z,7.42
2023-01-27T13:53:27.257Z,7.38
2023-01-27T13:56:13.204Z,7.35
2023-01-27T13:58:56.008Z,7.33
2023-01-27T14:01:31.121Z,7.32
2023-01-27T14:04:31.403Z,7.30
2023-01-27T14:07:16.352Z,7.30
2023-01-27T14:10:01.960Z,7.28
2023-01-27T14:12:55.733Z,7.28
2023-01-27T14:15:32.554Z,7.28
2023-01-27T14:18:13.703Z,7.25
2023-01-27T14:21:02.225Z,7.25
2023-01-27T14:23:43.927Z,7.23
2023-01-27T14:26:48.967Z,7.22
2023-01-27T14:29:33.016Z,7.23
2023-01-27T14:32:13.043Z,7.22
2023-01-27T14:34:59.476Z,7.23
2023-01-27T14:37:38.410Z,7.22
2023-01-27T14:40:19.849Z,7.20
2023-01-27T14:43:05.667Z,7.15
2023-01-27T14:45:37.181Z,7.07
2023-01-27T14:48:22.729Z,6.98
2023-01-27T14:51:04.541Z,6.91
2023-01-27T14:53:50.833Z,6.84
2023-01-27T14:56:29.039Z,6.73
2023-01-27T14:59:07.326Z,6.62
2023-01-27T15:01:46.834Z,6.54
2023-01-27T15:04:37.738Z,6.43
2023-01-27T15:07:16.634Z,6.38
2023-01-27T15:10:21.903Z,6.33
2023-01-27T15:13:44.747Z,6.23
2023-01-27T15:16:52.737Z,6.15
2023-01-27T15:19:54.219Z,6.10
2023-01-27T15:22:56.930Z,6.05
2023-01-27T15:25:33.587Z,6.07
2023-01-27T15:28:03.857Z,6.07
2023-01-27T15:30:35.016Z,6.08
2023-01-27T15:33:03.654Z,6.08
2023-01-27T15:35:41.642Z,6.07
2023-01-27T15:38:34.489Z,6.05
2023-01-27T15:41:17.082Z,6.04
2023-01-27T15:44:16.781Z,5.98
2023-01-27T15:46:48.079Z,5.96
2023-01-27T15:49:21.977Z,5.92
2023-01-27T15:51:53.872Z,5.91
2023-01-27T15:54:28.915Z,5.87
2023-01-27T15:57:00.287Z,5.86
2023-01-27T15:59:32.621Z,5.83
2023-01-27T16:02:06.277Z,5.81
2023-01-27T16:04:35.014Z,5.81
2023-01-27T16:07:06.079Z,5.77
2023-01-27T16:09:41.989Z,5.78
2023-01-27T16:12:37.246Z,5.75
2023-01-27T16:15:34.021Z,5.72
2023-01-27T16:18:27.818Z,5.71
2023-01-27T16:21:06.566Z,5.68
2023-01-27T16:23:48.146Z,5.65
2023-01-27T16:26:30.486Z,5.66
2023-01-27T16:29:20.156Z,5.64
2023-01-27T16:31:53.395Z,5.63
2023-01-27T16:34:30.244Z,5.65
2023-01-27T16:37:05.901Z,5.65
2023-01-27T16:39:42.950Z,5.66
2023-01-27T16:42:34.970Z,5.63
2023-01-27T16:45:17.988Z,5.66
2023-01-27T16:47:51.209Z,5.67
2023-01-27T16:50:38.753Z,5.65
2023-01-27T16:53:14.484Z,5.65
2023-01-27T16:55:43.176Z,5.63
2023-01-27T16:58:24.386Z,5.61
2023-01-27T17:00:58.307Z,5.59
2023-01-27T17:03:37.576Z,5.59
2023-01-27T17:06:10.514Z,5.58
2023-01-27T17:08:46.801Z,5.55
2023-01-27T17:11:25.368Z,5.55
2023-01-27T17:14:02.856Z,5.55
2023-01-27T17:16:38.043Z,5.55
2023-01-27T17:19:12.146Z,5.54
2023-01-27T17:21:46.594Z,5.56
2023-01-27T17:24:21.994Z,5.57
2023-01-27T17:26:58.023Z,5.56
2023-01-27T17:29:38.199Z,5.53
2023-01-27T17:32:22.986Z,5.49
2023-01-27T17:34:54.851Z,5.46
2023-01-27T17:37:26.020Z,5.44
2023-01-27T17:39:58.957Z,5.42
2023-01-27T17:42:31.945Z,5.41
2023-01-27T17:45:27.275Z,5.40
2023-01-27T17:48:00.670Z,5.41
2023-01-27T17:50:36.479Z,5.38
2023-01-27T17:53:11.737Z,5.39
2023-01-27T17:55:40.753Z,5.38
2023-01-27T17:58:18.109Z,5.35
2023-01-27T18:00:48.997Z,5.34
2023-01-27T18:03:24.497Z,5.33
2023-01-27T18:05:55.883Z,5.32
2023-01-27T18:08:28.203Z,5.33
2023-01-27T18:11:11.204Z,5.31
2023-01-27T18:13:43.052Z,5.30
2023-01-27T18:16:18.281Z,5.30
2023-01-27T18:18:50.010Z,5.30
2023-01-27T18:21:24.063Z,5.30
2023-01-27T18:23:56.300Z,5.29
2023-01-27T18:26:29.039Z,5.28
2023-01-27T18:29:02.836Z,5.26
2023-01-27T18:31:35.451Z,5.23
2023-01-27T18:34:27.380Z,5.21
2023-01-27T18:37:00.372Z,5.19
2023-01-27T18:39:40.220Z,5.20
2023-01-27T18:42:17.064Z,5.21
2023-01-27T18:44:47.756Z,5.18
2023-01-27T18:47:34.411Z,5.17
2023-01-27T18:50:17.933Z,5.17
2023-01-27T18:52:47.903Z,5.15
2023-01-27T18:55:20.227Z,5.13
2023-01-27T18:57:52.173Z,5.13
2023-01-27T19:00:24.944Z,5.13
2023-01-27T19:02:59.305Z,5.13
2023-01-27T19:05:32.817Z,5.14
2023-01-27T19:08:06.558Z,5.13
2023-01-27T19:10:36.760Z,5.14
2023-01-27T19:13:06.396Z,5.13
2023-01-27T19:15:40.101Z,5.10
2023-01-27T19:18:17.327Z,5.10
2023-01-27T19:20:47.807Z,5.09
2023-01-27T19:23:19.255Z,5.09
2023-01-27T19:25:52.111Z,5.09
2023-01-27T19:28:28.719Z,5.08
2023-01-27T19:30:58.339Z,5.05
2023-01-27T19:33:29.412Z,5.11
2023-01-27T19:36:05.210Z,5.12
2023-01-27T19:38:34.788Z,5.12
2023-01-27T19:41:03.824Z,5.12
2023-01-27T19:43:33.358Z,5.12
2023-01-27T19:46:05.044Z,5.13
2023-01-27T19:48:35.372Z,5.14
2023-01-27T19:51:07.520Z,5.15
2023-01-27T19:53:37.867Z,5.16
2023-01-27T19:56:19.594Z,5.16
2023-01-27T19:58:52.014Z,5.17
2023-01-27T20:01:22.992Z,5.17
2023-01-27T20:03:53.991Z,5.15
2023-01-27T20:06:29.541Z,5.15
2023-01-27T20:09:04.039Z,5.11
2023-01-27T20:11:38.373Z,5.09
2023-01-27T20:14:14.234Z,5.09
2023-01-27T20:16:45.708Z,5.10
2023-01-27T20:19:16.705Z,5.11
2023-01-27T20:21:49.878Z,5.10
2023-01-27T20:24:21.398Z,5.10
2023-01-27T20:26:51.072Z,5.11
2023-01-27T20:29:20.977Z,5.11
2023-01-27T20:31:53.050Z,5.12
2023-01-27T20:34:23.281Z,5.14
2023-01-27T20:36:57.934Z,5.15
2023-01-27T20:39:28.263Z,5.15
2023-01-27T20:41:58.636Z,5.16
2023-01-27T20:44:28.336Z,5.18
2023-01-27T20:47:01.143Z,5.18
2023-01-27T20:49:32.428Z,5.17
2023-01-27T20:52:04.158Z,5.16
2023-01-27T20:54:35.052Z,5.16
2023-01-27T20:57:07.498Z,5.16
2023-01-27T20:59:36.957Z,5.16
2023-01-27T21:02:05.841Z,5.17
2023-01-27T21:04:37.130Z,5.16
2023-01-27T21:07:07.728Z,5.19
2023-01-27T21:09:37.000Z,5.19
2023-01-27T21:12:06.572Z,5.21
2023-01-27T21:14:35.604Z,5.22
2023-01-27T21:17:05.461Z,5.22
2023-01-27T21:19:33.958Z,5.23
2023-01-27T21:22:03.540Z,5.24
2023-01-27T21:24:35.951Z,5.23
2023-01-27T21:27:05.166Z,5.24
2023-01-27T21:29:35.332Z,5.22
2023-01-27T21:32:04.573Z,5.20
2023-01-27T21:34:33.198Z,5.19
2023-01-27T21:37:02.740Z,5.18
2023-01-27T21:39:34.297Z,5.18
2023-01-27T21:42:20.378Z,5.17
2023-01-27T21:45:06.849Z,5.15
2023-01-27T21:47:35.902Z,5.16
2023-01-27T21:50:04.914Z,5.16
2023-01-27T21:52:37.920Z,5.18
2023-01-27T21:55:11.172Z,5.21
2023-01-27T21:57:40.577Z,5.20
2023-01-27T22:00:12.525Z,5.20
2023-01-27T22:02:41.857Z,5.19
2023-01-27T22:05:11.688Z,5.19
2023-01-27T22:07:41.727Z,5.18
2023-01-27T22:10:16.550Z,5.18
2023-01-27T22:12:45.331Z,5.18
2023-01-27T22:15:16.488Z,5.16
2023-01-27T22:17:45.284Z,5.16
2023-01-27T22:20:15.536Z,5.14
2023-01-27T22:22:44.199Z,5.14
2023-01-27T22:25:17.025Z,5.14
2023-01-27T22:27:46.335Z,5.14
2023-01-27T22:30:18.001Z,5.16
2023-01-27T22:32:47.844Z,5.16
2023-01-27T22:35:18.857Z,5.14
2023-01-27T22:37:49.201Z,5.14
2023-01-27T22:40:19.594Z,5.14
2023-01-27T22:42:50.096Z,5.14
2023-01-27T22:45:19.098Z,5.12
2023-01-27T22:47:49.487Z,5.11
2023-01-27T22:50:19.055Z,5.12
2023-01-27T22:52:47.628Z,5.12
2023-01-27T22:55:16.512Z,5.11
2023-01-27T22:57:48.731Z,5.09
2023-01-27T23:00:18.435Z,5.04
2023-01-27T23:02:46.869Z,5.09
2023-01-27T23:05:15.903Z,5.09
2023-01-27T23:07:44.532Z,5.09
2023-01-27T23:10:13.047Z,5.06
2023-01-27T23:12:41.582Z,5.08
2023-01-27T23:15:12.791Z,5.08
2023-01-27T23:17:41.561Z,5.07
2023-01-27T23:20:12.186Z,5.07
2023-01-27T23:22:40.914Z,5.07
2023-01-27T23:25:11.676Z,5.05
2023-01-27T23:27:40.658Z,5.06
2023-01-27T23:30:13.352Z,5.04
2023-01-27T23:32:41.862Z,5.06
2023-01-27T23:35:11.445Z,5.04
2023-01-27T23:37:39.910Z,5.06
2023-01-27T23:40:10.460Z,5.06
2023-01-27T23:42:38.879Z,5.06
2023-01-27T23:45:08.508Z,5.07
2023-01-27T23:47:38.311Z,5.06
2023-01-27T23:50:08.034Z,5.06
2023-01-27T23:52:36.648Z,5.06
2023-01-27T23:55:05.684Z,5.06
2023-01-27T23:57:34.106Z,5.07
